createdAt,value
2018-07-13T00:01:31.258Z,20.70
2018-07-13T00:03:59.551Z,20.60
2018-07-13T00:06:27.784Z,20.60
2018-07-13T00:08:56.039Z,20.60
2018-07-13T00:11:24.325Z,20.50
2018-07-13T00:14:06.272Z,20.50
2018-07-13T00:16:34.599Z,20.40
2018-07-13T00:19:02.839Z,20.40
2018-07-13T00:21:31.080Z,20.30
2018-07-13T00:28:55.368Z,20.20
2018-07-13T00:31:23.970Z,20.10
2018-07-13T00:33:52.274Z,20.10
2018-07-13T00:38:48.967Z,20.00
2018-07-13T00:41:17.290Z,20.00
2018-07-13T00:43:45.575Z,20.00
2018-07-13T00:46:13.863Z,20.00
2018-07-13T00:48:42.112Z,20.00
2018-07-13T00:51:10.428Z,20.00
2018-07-13T00:53:38.717Z,20.00
2018-07-13T00:56:07.162Z,20.00
2018-07-13T00:58:35.403Z,20.00
2018-07-13T01:03:31.742Z,20.00
2018-07-13T01:06:00.064Z,20.00
2018-07-13T01:08:28.355Z,20.00
2018-07-13T01:10:56.584Z,19.90
2018-07-13T01:13:24.824Z,20.00
2018-07-13T01:15:53.138Z,19.90
2018-07-13T01:18:21.421Z,19.90
2018-07-13T01:20:49.660Z,19.90
2018-07-13T01:23:18.400Z,19.90
2018-07-13T01:25:46.758Z,19.90
2018-07-13T01:28:15.087Z,19.90
2018-07-13T01:30:43.348Z,19.80
2018-07-13T01:33:11.663Z,19.80
2018-07-13T01:35:39.922Z,19.80
2018-07-13T01:38:08.232Z,19.80
2018-07-13T01:40:36.582Z,19.80
2018-07-13T01:43:04.792Z,19.80
2018-07-13T01:45:33.645Z,19.70
2018-07-13T01:48:01.928Z,19.70
2018-07-13T01:50:30.218Z,19.70
2018-07-13T01:52:58.567Z,19.70
2018-07-13T01:55:26.861Z,19.70
2018-07-13T01:57:55.107Z,19.70
2018-07-13T02:00:24.104Z,19.70
2018-07-13T02:02:52.311Z,19.70
2018-07-13T02:05:20.591Z,19.70
2018-07-13T02:07:48.891Z,19.70
2018-07-13T02:10:17.119Z,19.70
2018-07-13T02:12:45.447Z,19.70
2018-07-13T02:15:13.683Z,19.70
2018-07-13T02:17:42.018Z,19.70
2018-07-13T02:20:10.327Z,19.60
2018-07-13T02:22:38.590Z,19.60
2018-07-13T02:25:06.876Z,19.60
2018-07-13T02:27:35.135Z,19.60
2018-07-13T02:30:03.489Z,19.60
2018-07-13T02:32:32.609Z,19.60
2018-07-13T02:35:00.850Z,19.60
2018-07-13T02:37:29.287Z,19.60
2018-07-13T02:39:57.604Z,19.60
2018-07-13T02:42:25.949Z,19.60
2018-07-13T02:47:22.259Z,19.50
2018-07-13T02:49:50.557Z,19.50
2018-07-13T02:52:18.843Z,19.50
2018-07-13T02:54:47.180Z,19.50
2018-07-13T02:57:15.526Z,19.50
2018-07-13T02:59:43.830Z,19.50
2018-07-13T03:02:12.086Z,19.50
2018-07-13T03:04:40.324Z,19.50
2018-07-13T03:07:08.759Z,19.50
2018-07-13T03:09:36.967Z,19.50
2018-07-13T03:12:05.307Z,19.50
2018-07-13T03:14:33.579Z,19.50
2018-07-13T03:17:01.909Z,19.50
2018-07-13T03:19:30.120Z,19.50
2018-07-13T03:21:58.751Z,19.50
2018-07-13T03:24:27.526Z,19.40
2018-07-13T03:26:55.787Z,19.40
2018-07-13T03:29:24.142Z,19.40
2018-07-13T03:31:52.495Z,19.40
2018-07-13T03:34:20.769Z,19.40
2018-07-13T03:36:49.054Z,19.30
2018-07-13T03:41:45.391Z,19.30
2018-07-13T03:44:13.763Z,19.30
2018-07-13T03:46:42.029Z,19.30
2018-07-13T03:49:10.297Z,19.30
2018-07-13T03:51:38.584Z,19.30
2018-07-13T03:54:06.855Z,19.30
2018-07-13T03:56:35.179Z,19.30
2018-07-13T03:59:03.516Z,19.30
2018-07-13T04:01:32.365Z,19.30
2018-07-13T04:06:29.234Z,19.30
2018-07-13T04:11:25.578Z,19.30
2018-07-13T04:13:53.876Z,19.30
2018-07-13T04:16:22.158Z,19.30
2018-07-13T04:18:50.446Z,19.30
2018-07-13T04:23:46.680Z,19.40
2018-07-13T04:26:14.932Z,19.40
2018-07-13T04:28:43.371Z,19.40
2018-07-13T04:31:11.594Z,19.50
2018-07-13T04:33:39.918Z,19.50
2018-07-13T04:36:08.189Z,19.50
2018-07-13T04:38:36.443Z,19.50
2018-07-13T04:41:04.746Z,19.50
2018-07-13T04:43:33.071Z,19.50
2018-07-13T04:48:24.176Z,19.50
2018-07-13T04:50:52.608Z,19.60
2018-07-13T04:53:22.021Z,19.60
2018-07-13T04:55:50.343Z,19.60
2018-07-13T04:58:18.654Z,19.60
2018-07-13T05:00:47.016Z,19.60
2018-07-13T05:03:15.290Z,19.70
2018-07-13T05:05:43.727Z,19.70
2018-07-13T05:08:12.033Z,19.70
2018-07-13T05:10:40.344Z,19.70
2018-07-13T05:13:08.667Z,19.70
2018-07-13T05:15:37.571Z,19.60
2018-07-13T05:18:05.895Z,19.70
2018-07-13T05:20:34.242Z,19.70
2018-07-13T05:23:02.520Z,19.80
2018-07-13T05:25:30.870Z,19.80
2018-07-13T05:27:59.185Z,19.70
2018-07-13T05:30:27.481Z,19.70
2018-07-13T05:32:55.728Z,19.80
2018-07-13T05:35:23.963Z,19.80
2018-07-13T05:40:20.346Z,20.00
2018-07-13T05:42:48.709Z,20.10
2018-07-13T05:45:17.023Z,20.20
2018-07-13T05:47:45.396Z,20.30
2018-07-13T05:50:13.722Z,20.30
2018-07-13T05:52:42.117Z,20.40
2018-07-13T05:55:10.430Z,20.40
2018-07-13T05:57:38.729Z,20.50
2018-07-13T06:00:08.973Z,20.50
2018-07-13T06:02:37.355Z,20.60
2018-07-13T06:05:05.732Z,20.70
2018-07-13T06:07:34.045Z,20.70
2018-07-13T06:10:02.312Z,20.80
2018-07-13T06:12:30.608Z,20.90
2018-07-13T06:14:58.949Z,20.90
2018-07-13T06:19:55.256Z,21.00
2018-07-13T06:22:24.318Z,21.10
2018-07-13T06:24:52.613Z,21.10
2018-07-13T06:27:20.976Z,21.20
2018-07-13T06:29:49.223Z,21.20
2018-07-13T06:32:17.560Z,21.30
2018-07-13T06:34:45.868Z,21.40
2018-07-13T06:37:14.255Z,21.40
2018-07-13T06:39:42.640Z,21.50
2018-07-13T06:42:11.006Z,21.60
2018-07-13T06:44:39.351Z,21.60
2018-07-13T06:47:07.619Z,21.70
2018-07-13T06:49:35.978Z,21.70
2018-07-13T06:52:04.292Z,21.80
2018-07-13T06:54:32.571Z,21.90
2018-07-13T06:57:00.983Z,22.00
2018-07-13T06:59:29.262Z,22.10
2018-07-13T07:01:57.580Z,22.20
2018-07-13T07:04:31.644Z,22.20
2018-07-13T07:07:01.853Z,22.30
2018-07-13T07:09:30.170Z,22.40
2018-07-13T07:13:09.263Z,22.50
2018-07-13T07:15:37.937Z,22.60
2018-07-13T07:18:06.598Z,22.70
2018-07-13T07:20:34.954Z,22.70
2018-07-13T07:23:03.196Z,22.90
2018-07-13T07:25:32.630Z,23.00
2018-07-13T07:28:01.027Z,23.10
2018-07-13T07:30:29.431Z,23.30
2018-07-13T07:32:57.728Z,23.40
2018-07-13T07:35:26.043Z,23.50
2018-07-13T07:37:54.337Z,23.60
2018-07-13T07:40:23.203Z,23.70
2018-07-13T07:42:51.575Z,23.70
2018-07-13T07:45:19.890Z,23.90
2018-07-13T07:47:48.178Z,23.90
2018-07-13T07:50:16.571Z,23.90
2018-07-13T07:52:44.848Z,24.10
2018-07-13T07:55:13.178Z,24.20
2018-07-13T07:57:41.683Z,24.30
2018-07-13T08:00:09.937Z,24.40
2018-07-13T08:02:38.238Z,24.40
2018-07-13T08:05:06.642Z,24.60
2018-07-13T08:07:35.036Z,24.60
2018-07-13T08:10:03.300Z,24.60
2018-07-13T08:12:31.691Z,24.70
2018-07-13T08:14:59.912Z,24.70
2018-07-13T08:17:28.241Z,24.80
2018-07-13T08:19:56.812Z,24.80
2018-07-13T08:22:42.748Z,24.90
2018-07-13T08:25:12.880Z,24.90
2018-07-13T08:27:45.556Z,25.00
2018-07-13T08:30:24.721Z,25.00
2018-07-13T08:32:53.268Z,25.00
2018-07-13T08:35:21.552Z,25.10
2018-07-13T08:37:49.928Z,25.10
2018-07-13T08:40:18.184Z,25.20
2018-07-13T08:42:47.012Z,25.10
2018-07-13T08:47:44.751Z,25.10
2018-07-13T08:50:13.227Z,25.10
2018-07-13T08:52:41.641Z,25.20
2018-07-13T08:55:15.168Z,25.20
2018-07-13T08:57:46.190Z,25.20
2018-07-13T09:00:14.556Z,25.20
2018-07-13T09:02:42.915Z,25.30
2018-07-13T09:05:11.178Z,25.50
2018-07-13T09:07:39.571Z,25.60
2018-07-13T09:10:09.137Z,25.70
2018-07-13T09:12:37.859Z,25.80
2018-07-13T09:15:07.235Z,26.00
2018-07-13T09:17:35.480Z,26.20
2018-07-13T09:20:04.325Z,26.30
2018-07-13T09:22:32.593Z,26.40
2018-07-13T09:25:00.923Z,26.60
2018-07-13T09:27:29.252Z,26.80
2018-07-13T09:29:57.583Z,26.90
2018-07-13T09:32:25.862Z,27.10
2018-07-13T09:34:54.281Z,27.30
2018-07-13T09:37:22.594Z,27.50
2018-07-13T09:39:50.894Z,27.80
2018-07-13T09:42:19.136Z,28.20
2018-07-13T09:44:47.361Z,28.60
2018-07-13T09:47:15.639Z,29.10
2018-07-13T09:49:44.034Z,29.50
2018-07-13T09:52:12.310Z,29.90
2018-07-13T09:54:40.795Z,30.10
2018-07-13T09:57:09.195Z,30.20
2018-07-13T09:59:37.521Z,30.50
2018-07-13T10:02:06.073Z,30.70
2018-07-13T10:04:34.388Z,30.80
2018-07-13T10:07:02.717Z,31.00
2018-07-13T10:09:30.972Z,31.00
2018-07-13T10:12:00.182Z,30.80
2018-07-13T10:14:28.597Z,30.50
2018-07-13T10:16:56.827Z,30.10
2018-07-13T10:19:25.125Z,29.80
2018-07-13T10:21:53.507Z,29.50
2018-07-13T10:24:21.811Z,29.20
2018-07-13T10:26:50.960Z,28.90
2018-07-13T10:29:23.913Z,28.70
2018-07-13T10:31:52.712Z,28.50
2018-07-13T10:34:21.348Z,28.50
2018-07-13T10:36:54.641Z,28.40
2018-07-13T10:39:23.090Z,28.40
2018-07-13T10:41:51.873Z,28.30
2018-07-13T10:44:21.143Z,28.30
2018-07-13T10:46:49.381Z,28.20
2018-07-13T10:49:17.800Z,28.10
2018-07-13T10:54:14.176Z,28.00
2018-07-13T10:56:42.490Z,28.00
2018-07-13T10:59:10.820Z,28.00
2018-07-13T11:01:39.345Z,28.00
2018-07-13T11:04:08.016Z,28.00
2018-07-13T11:06:36.213Z,28.10
2018-07-13T11:09:05.739Z,28.10
2018-07-13T11:11:34.135Z,28.00
2018-07-13T11:14:02.556Z,28.00
2018-07-13T11:16:30.727Z,28.00
2018-07-13T11:18:59.148Z,27.90
2018-07-13T11:21:27.559Z,28.00
2018-07-13T11:23:55.838Z,28.00
2018-07-13T11:26:24.655Z,28.00
2018-07-13T11:28:52.985Z,27.90
2018-07-13T11:31:21.400Z,27.80
2018-07-13T11:33:49.701Z,27.70
2018-07-13T11:36:17.984Z,27.50
2018-07-13T11:41:14.329Z,27.30
2018-07-13T11:43:42.619Z,27.30
2018-07-13T11:46:10.941Z,27.30
2018-07-13T11:48:39.200Z,27.30
2018-07-13T11:51:07.619Z,27.20
2018-07-13T11:53:35.959Z,27.20
2018-07-13T11:58:32.362Z,27.20
2018-07-13T12:01:00.681Z,27.20
2018-07-13T12:03:29.004Z,27.20
2018-07-13T12:05:58.071Z,27.30
2018-07-13T12:08:26.393Z,27.30
2018-07-13T12:10:54.774Z,27.40
2018-07-13T12:13:23.371Z,27.50
2018-07-13T12:15:51.777Z,27.50
2018-07-13T12:18:20.323Z,27.50
2018-07-13T12:20:48.608Z,27.50
2018-07-13T12:23:16.986Z,27.60
2018-07-13T12:25:45.250Z,27.70
2018-07-13T12:28:13.712Z,27.70
2018-07-13T12:30:42.016Z,27.80
2018-07-13T12:35:38.260Z,27.90
2018-07-13T12:38:06.575Z,28.00
2018-07-13T12:40:34.920Z,27.90
2018-07-13T12:43:03.151Z,27.90
2018-07-13T12:45:31.419Z,27.90
2018-07-13T12:47:59.752Z,28.00
2018-07-13T12:50:28.009Z,28.00
2018-07-13T12:52:56.426Z,28.10
2018-07-13T12:57:52.696Z,28.00
2018-07-13T13:00:21.524Z,28.00
2018-07-13T13:02:49.821Z,28.00
2018-07-13T13:05:18.124Z,28.10
2018-07-13T13:07:46.558Z,28.10
2018-07-13T13:10:14.889Z,28.10
2018-07-13T13:12:43.200Z,28.10
2018-07-13T13:15:11.465Z,28.10
2018-07-13T13:17:39.789Z,28.10
2018-07-13T13:20:08.123Z,28.10
2018-07-13T13:22:36.407Z,28.10
2018-07-13T13:25:04.687Z,28.20
2018-07-13T13:30:01.016Z,28.30
2018-07-13T13:32:29.295Z,28.30
2018-07-13T13:34:57.516Z,28.50
2018-07-13T13:37:26.100Z,28.60
2018-07-13T13:39:54.445Z,28.50
2018-07-13T13:42:22.948Z,28.50
2018-07-13T13:44:51.965Z,28.50
2018-07-13T13:47:20.631Z,28.60
2018-07-13T13:49:48.993Z,28.60
2018-07-13T13:52:17.326Z,28.70
2018-07-13T13:54:45.778Z,28.70
2018-07-13T13:57:14.142Z,28.80
2018-07-13T13:59:42.446Z,28.90
2018-07-13T14:02:10.795Z,29.00
2018-07-13T14:04:39.031Z,29.00
2018-07-13T14:07:07.398Z,29.10
2018-07-13T14:09:35.805Z,28.90
2018-07-13T14:12:04.162Z,28.80
2018-07-13T14:14:32.510Z,28.70
2018-07-13T14:17:00.697Z,28.70
2018-07-13T14:19:29.523Z,28.70
2018-07-13T14:21:57.791Z,28.60
2018-07-13T14:24:26.029Z,28.60
2018-07-13T14:26:54.252Z,28.60
2018-07-13T14:29:22.516Z,28.50
2018-07-13T14:31:52.181Z,28.60
2018-07-13T14:34:20.743Z,28.60
2018-07-13T14:36:49.106Z,28.50
2018-07-13T14:39:17.501Z,28.40
2018-07-13T14:41:46.040Z,28.40
2018-07-13T14:44:14.427Z,28.50
2018-07-13T14:46:42.775Z,28.50
2018-07-13T14:49:11.056Z,28.60
2018-07-13T14:51:39.441Z,28.70
2018-07-13T14:54:08.308Z,28.60
2018-07-13T14:56:36.763Z,28.60
2018-07-13T14:59:05.157Z,28.60
2018-07-13T15:01:33.605Z,28.50
2018-07-13T15:04:02.107Z,28.60
2018-07-13T15:06:30.536Z,28.60
2018-07-13T15:08:58.888Z,28.60
2018-07-13T15:11:27.211Z,28.60
2018-07-13T15:13:55.572Z,28.70
2018-07-13T15:16:24.262Z,28.60
2018-07-13T15:18:53.338Z,28.50
2018-07-13T15:21:22.321Z,28.50
2018-07-13T15:23:50.675Z,28.40
2018-07-13T15:28:47.189Z,28.20
2018-07-13T15:31:15.861Z,28.20
2018-07-13T15:33:44.598Z,28.10
2018-07-13T15:36:13.545Z,28.10
2018-07-13T15:38:42.180Z,28.10
2018-07-13T15:41:10.586Z,28.20
2018-07-13T15:43:39.186Z,28.20
2018-07-13T15:46:07.772Z,28.20
2018-07-13T15:48:36.180Z,28.30
2018-07-13T15:51:04.676Z,28.40
2018-07-13T15:53:33.249Z,28.50
2018-07-13T15:56:02.426Z,28.50
2018-07-13T15:58:31.092Z,28.60
2018-07-13T16:00:59.436Z,28.50
2018-07-13T16:03:27.995Z,28.50
2018-07-13T16:05:56.434Z,28.50
2018-07-13T16:08:24.968Z,28.50
2018-07-13T16:10:54.527Z,28.50
2018-07-13T16:13:23.097Z,28.60
2018-07-13T16:15:51.537Z,28.60
2018-07-13T16:18:20.033Z,28.60
2018-07-13T16:20:48.607Z,28.60
2018-07-13T16:23:17.083Z,28.60
2018-07-13T16:25:45.448Z,28.50
2018-07-13T16:28:13.890Z,28.30
2018-07-13T16:30:42.545Z,28.30
2018-07-13T16:33:10.987Z,28.20
2018-07-13T16:35:39.516Z,28.20
2018-07-13T16:38:08.099Z,28.20
2018-07-13T16:40:36.662Z,28.10
2018-07-13T16:43:05.666Z,28.10
2018-07-13T16:45:34.336Z,28.10
2018-07-13T16:48:02.970Z,28.10
2018-07-13T16:50:31.555Z,28.00
2018-07-13T16:53:00.220Z,28.00
2018-07-13T16:55:28.853Z,28.00
2018-07-13T16:57:57.379Z,28.00
2018-07-13T17:00:25.880Z,28.00
2018-07-13T17:02:54.513Z,28.00
2018-07-13T17:05:22.962Z,28.00
2018-07-13T17:07:51.873Z,28.00
2018-07-13T17:10:20.276Z,28.00
2018-07-13T17:12:48.767Z,28.00
2018-07-13T17:15:17.261Z,28.00
2018-07-13T17:17:45.633Z,28.10
2018-07-13T17:20:14.193Z,28.10
2018-07-13T17:22:42.681Z,28.20
2018-07-13T17:25:11.245Z,28.20
2018-07-13T17:27:39.746Z,28.20
2018-07-13T17:30:09.584Z,28.30
2018-07-13T17:32:38.101Z,28.20
2018-07-13T17:35:06.572Z,28.20
2018-07-13T17:37:35.797Z,28.20
2018-07-13T17:40:04.363Z,28.20
2018-07-13T17:42:33.150Z,28.20
2018-07-13T17:45:01.686Z,28.20
2018-07-13T17:47:30.355Z,28.20
2018-07-13T17:49:59.596Z,28.20
2018-07-13T17:52:28.167Z,28.10
2018-07-13T17:54:56.735Z,28.10
2018-07-13T17:57:25.342Z,28.00
2018-07-13T17:59:53.768Z,28.00
2018-07-13T18:02:22.486Z,27.90
2018-07-13T18:04:50.863Z,27.80
2018-07-13T18:07:19.343Z,27.70
2018-07-13T18:09:47.829Z,27.60
2018-07-13T18:12:16.255Z,27.60
2018-07-13T18:14:44.762Z,27.50
2018-07-13T18:17:13.133Z,27.40
2018-07-13T18:19:41.583Z,27.40
2018-07-13T18:22:09.933Z,27.30
2018-07-13T18:24:39.590Z,27.30
2018-07-13T18:27:08.795Z,27.20
2018-07-13T18:29:37.182Z,27.20
2018-07-13T18:32:05.656Z,27.10
2018-07-13T18:34:34.212Z,27.00
2018-07-13T18:37:02.946Z,27.00
2018-07-13T18:39:33.952Z,26.90
2018-07-13T18:42:02.496Z,26.90
2018-07-13T18:44:30.881Z,26.90
2018-07-13T18:46:59.301Z,26.90
2018-07-13T18:49:27.671Z,26.80
2018-07-13T18:51:56.146Z,26.80
2018-07-13T18:54:24.564Z,26.80
2018-07-13T18:56:53.076Z,26.80
2018-07-13T18:59:21.488Z,26.70
2018-07-13T19:01:49.850Z,26.70
2018-07-13T19:04:18.148Z,26.60
2018-07-13T19:06:46.509Z,26.60
2018-07-13T19:09:15.474Z,26.50
2018-07-13T19:11:43.798Z,26.50
2018-07-13T19:14:12.111Z,26.50
2018-07-13T19:16:40.453Z,26.50
2018-07-13T19:19:08.877Z,26.40
2018-07-13T19:21:38.094Z,26.30
2018-07-13T19:24:06.378Z,26.30
2018-07-13T19:26:34.784Z,26.30
2018-07-13T19:29:03.207Z,26.30
2018-07-13T19:31:32.644Z,26.20
2018-07-13T19:34:00.965Z,26.20
2018-07-13T19:36:29.531Z,26.20
2018-07-13T19:38:57.822Z,26.10
2018-07-13T19:41:28.023Z,26.10
2018-07-13T19:43:56.311Z,26.00
2018-07-13T19:46:24.746Z,26.00
2018-07-13T19:48:53.132Z,26.00
2018-07-13T19:51:21.809Z,25.90
2018-07-13T19:53:50.270Z,25.90
2018-07-13T19:56:19.036Z,25.90
2018-07-13T19:58:47.587Z,25.80
2018-07-13T20:01:15.912Z,25.80
2018-07-13T20:03:44.409Z,25.70
2018-07-13T20:06:13.233Z,25.70
2018-07-13T20:08:41.544Z,25.60
2018-07-13T20:11:10.000Z,25.60
2018-07-13T20:13:38.335Z,25.50
2018-07-13T20:16:06.628Z,25.40
2018-07-13T20:18:35.027Z,25.30
2018-07-13T20:21:03.506Z,25.30
2018-07-13T20:23:31.835Z,25.20
2018-07-13T20:26:00.265Z,25.10
2018-07-13T20:28:28.625Z,25.10
2018-07-13T20:30:57.084Z,25.00
2018-07-13T20:33:25.567Z,25.00
2018-07-13T20:35:53.864Z,24.90
2018-07-13T20:38:22.230Z,24.80
2018-07-13T20:40:50.588Z,24.70
2018-07-13T20:43:19.027Z,24.70
2018-07-13T20:45:47.444Z,24.60
2018-07-13T20:48:15.894Z,24.60
2018-07-13T20:50:44.231Z,24.50
2018-07-13T20:53:13.330Z,24.50
2018-07-13T20:55:41.740Z,24.40
2018-07-13T20:58:10.169Z,24.30
2018-07-13T21:00:38.535Z,24.30
2018-07-13T21:03:06.920Z,24.20
2018-07-13T21:05:35.903Z,24.20
2018-07-13T21:08:04.240Z,24.10
2018-07-13T21:10:32.566Z,24.00
2018-07-13T21:13:00.819Z,24.00
2018-07-13T21:17:57.498Z,23.90
2018-07-13T21:20:25.838Z,23.80
2018-07-13T21:22:54.171Z,23.80
2018-07-13T21:25:22.548Z,23.70
2018-07-13T21:27:50.985Z,23.70
2018-07-13T21:30:19.314Z,23.70
2018-07-13T21:32:48.356Z,23.60
2018-07-13T21:35:16.640Z,23.60
2018-07-13T21:37:45.008Z,23.50
2018-07-13T21:40:13.484Z,23.50
2018-07-13T21:42:41.801Z,23.40
2018-07-13T21:45:10.232Z,23.40
2018-07-13T21:47:38.987Z,23.40
2018-07-13T21:50:07.316Z,23.30
2018-07-13T21:52:35.669Z,23.30
2018-07-13T21:57:32.108Z,23.20
2018-07-13T22:00:00.408Z,23.20
2018-07-13T22:02:28.837Z,23.10
2018-07-13T22:04:57.079Z,23.10
2018-07-13T22:07:26.224Z,23.10
2018-07-13T22:09:55.528Z,23.10
2018-07-13T22:12:24.550Z,23.10
2018-07-13T22:14:52.893Z,23.10
2018-07-13T22:17:21.376Z,23.00
2018-07-13T22:19:49.806Z,23.00
2018-07-13T22:22:18.350Z,23.00
2018-07-13T22:24:46.883Z,23.00
2018-07-13T22:27:15.592Z,22.90
2018-07-13T22:29:44.155Z,22.90
2018-07-13T22:32:12.601Z,22.90
2018-07-13T22:34:41.440Z,22.80
2018-07-13T22:37:10.123Z,22.80
2018-07-13T22:39:39.907Z,22.70
2018-07-13T22:42:08.363Z,22.70
2018-07-13T22:44:36.857Z,22.60
2018-07-13T22:47:05.856Z,22.60
2018-07-13T22:49:34.472Z,22.60
2018-07-13T22:52:03.273Z,22.50
2018-07-13T22:54:31.696Z,22.50
2018-07-13T22:57:00.164Z,22.40
2018-07-13T22:59:28.692Z,22.40
2018-07-13T23:01:57.448Z,22.40
2018-07-13T23:06:54.197Z,22.30
2018-07-13T23:09:22.740Z,22.30
2018-07-13T23:11:51.295Z,22.30
2018-07-13T23:14:19.922Z,22.20
2018-07-13T23:16:48.994Z,22.20
2018-07-13T23:21:45.547Z,22.20
2018-07-13T23:24:14.205Z,22.10
2018-07-13T23:26:43.068Z,22.10
2018-07-13T23:29:11.454Z,22.00
2018-07-13T23:31:39.960Z,22.00
2018-07-13T23:34:08.411Z,22.00
2018-07-13T23:36:36.952Z,22.00
2018-07-13T23:39:06.345Z,22.00
2018-07-13T23:41:34.618Z,21.90
2018-07-13T23:44:02.950Z,21.90
2018-07-13T23:46:31.382Z,21.90
2018-07-13T23:48:59.729Z,21.90
2018-07-13T23:51:27.981Z,21.80
2018-07-13T23:53:56.345Z,21.80
2018-07-13T23:56:24.894Z,21.80
2018-07-13T23:58:53.213Z,21.70
